sensor_id;sensor_type;location;lat;lon;timestamp;temperature;humidity
435;DHT22;204;48.942;9.256;2024-03-22T00:00:06;8.20;1.00
435;DHT22;204;48.942;9.256;2024-03-22T00:02:37;8.20;1.00
435;DHT22;204;48.942;9.256;2024-03-22T00:05:03;8.10;1.00
435;DHT22;204;48.942;9.256;2024-03-22T00:07:29;8.10;1.00
435;DHT22;204;48.942;9.256;2024-03-22T00:09:54;8.10;1.00
435;DHT22;204;48.942;9.256;2024-03-22T00:12:20;8.10;1.00
435;DHT22;204;48.942;9.256;2024-03-22T00:14:46;8.00;1.00
435;DHT22;204;48.942;9.256;2024-03-22T00:17:11;8.00;1.00
435;DHT22;204;48.942;9.256;2024-03-22T00:19:37;7.90;1.00
435;DHT22;204;48.942;9.256;2024-03-22T00:22:02;7.90;1.00
435;DHT22;204;48.942;9.256;2024-03-22T00:24:28;7.80;1.00
435;DHT22;204;48.942;9.256;2024-03-22T00:26:53;7.80;1.00
435;DHT22;204;48.942;9.256;2024-03-22T00:29:19;7.70;1.00
435;DHT22;204;48.942;9.256;2024-03-22T00:31:44;7.70;1.00
435;DHT22;204;48.942;9.256;2024-03-22T00:34:10;7.60;1.00
435;DHT22;204;48.942;9.256;2024-03-22T00:36:35;7.60;1.00
435;DHT22;204;48.942;9.256;2024-03-22T00:39:01;7.50;1.00
435;DHT22;204;48.942;9.256;2024-03-22T00:41:27;7.50;1.00
435;DHT22;204;48.942;9.256;2024-03-22T00:43:52;7.50;1.00
435;DHT22;204;48.942;9.256;2024-03-22T00:46:18;7.40;1.00
435;DHT22;204;48.942;9.256;2024-03-22T00:48:43;7.40;1.00
435;DHT22;204;48.942;9.256;2024-03-22T00:51:09;7.30;1.00
435;DHT22;204;48.942;9.256;2024-03-22T00:53:34;7.30;1.00
435;DHT22;204;48.942;9.256;2024-03-22T00:56:00;7.20;1.00
435;DHT22;204;48.942;9.256;2024-03-22T00:58:29;7.20;1.00
435;DHT22;204;48.942;9.256;2024-03-22T01:00:55;7.10;1.00
435;DHT22;204;48.942;9.256;2024-03-22T01:03:21;7.10;1.00
435;DHT22;204;48.942;9.256;2024-03-22T01:05:47;7.10;1.00
435;DHT22;204;48.942;9.256;2024-03-22T01:08:12;7.10;1.00
435;DHT22;204;48.942;9.256;2024-03-22T01:10:38;7.10;1.00
435;DHT22;204;48.942;9.256;2024-03-22T01:13:03;7.00;1.00
435;DHT22;204;48.942;9.256;2024-03-22T01:15:29;7.00;1.00
435;DHT22;204;48.942;9.256;2024-03-22T01:17:55;7.00;1.00
435;DHT22;204;48.942;9.256;2024-03-22T01:20:21;7.00;1.00
435;DHT22;204;48.942;9.256;2024-03-22T01:22:46;7.00;1.00
435;DHT22;204;48.942;9.256;2024-03-22T01:25:12;6.90;1.00
435;DHT22;204;48.942;9.256;2024-03-22T01:27:37;6.90;1.00
435;DHT22;204;48.942;9.256;2024-03-22T01:30:03;6.90;1.00
435;DHT22;204;48.942;9.256;2024-03-22T01:32:29;6.80;1.00
435;DHT22;204;48.942;9.256;2024-03-22T01:34:55;6.80;1.00
435;DHT22;204;48.942;9.256;2024-03-22T01:37:20;6.80;1.00
435;DHT22;204;48.942;9.256;2024-03-22T01:39:46;6.80;1.00
435;DHT22;204;48.942;9.256;2024-03-22T01:42:11;6.70;1.00
435;DHT22;204;48.942;9.256;2024-03-22T01:44:37;6.70;1.00
435;DHT22;204;48.942;9.256;2024-03-22T01:47:03;6.60;1.00
435;DHT22;204;48.942;9.256;2024-03-22T01:49:29;6.60;1.00
435;DHT22;204;48.942;9.256;2024-03-22T01:51:55;6.60;1.00
435;DHT22;204;48.942;9.256;2024-03-22T01:54:21;6.50;1.00
435;DHT22;204;48.942;9.256;2024-03-22T01:56:47;6.50;1.00
435;DHT22;204;48.942;9.256;2024-03-22T01:59:13;6.50;1.00
435;DHT22;204;48.942;9.256;2024-03-22T02:01:39;6.40;1.00
435;DHT22;204;48.942;9.256;2024-03-22T02:04:05;6.40;1.00
435;DHT22;204;48.942;9.256;2024-03-22T02:06:31;6.40;1.00
435;DHT22;204;48.942;9.256;2024-03-22T02:08:58;6.40;1.00
435;DHT22;204;48.942;9.256;2024-03-22T02:11:24;6.40;1.00
435;DHT22;204;48.942;9.256;2024-03-22T02:13:50;6.30;1.00
435;DHT22;204;48.942;9.256;2024-03-22T02:16:16;6.30;1.00
435;DHT22;204;48.942;9.256;2024-03-22T02:18:42;6.30;1.00
435;DHT22;204;48.942;9.256;2024-03-22T02:21:09;6.30;1.00
435;DHT22;204;48.942;9.256;2024-03-22T02:23:36;6.20;1.00
435;DHT22;204;48.942;9.256;2024-03-22T02:26:03;6.20;1.00
435;DHT22;204;48.942;9.256;2024-03-22T02:28:28;6.20;1.00
435;DHT22;204;48.942;9.256;2024-03-22T02:30:54;6.20;1.00
435;DHT22;204;48.942;9.256;2024-03-22T02:33:20;6.20;1.00
435;DHT22;204;48.942;9.256;2024-03-22T02:35:49;6.20;1.00
435;DHT22;204;48.942;9.256;2024-03-22T02:38:15;6.20;1.00
435;DHT22;204;48.942;9.256;2024-03-22T02:40:43;6.20;1.00
435;DHT22;204;48.942;9.256;2024-03-22T02:43:08;6.10;1.00
435;DHT22;204;48.942;9.256;2024-03-22T02:45:34;6.10;1.00
435;DHT22;204;48.942;9.256;2024-03-22T02:47:59;6.10;1.00
435;DHT22;204;48.942;9.256;2024-03-22T02:50:25;6.00;1.00
435;DHT22;204;48.942;9.256;2024-03-22T02:52:51;6.00;1.00
435;DHT22;204;48.942;9.256;2024-03-22T02:55:16;6.00;1.00
435;DHT22;204;48.942;9.256;2024-03-22T02:57:42;6.00;1.00
435;DHT22;204;48.942;9.256;2024-03-22T03:00:08;6.00;1.00
435;DHT22;204;48.942;9.256;2024-03-22T03:02:34;6.00;1.00
435;DHT22;204;48.942;9.256;2024-03-22T03:04:59;6.00;1.00
435;DHT22;204;48.942;9.256;2024-03-22T03:07:25;6.10;1.00
435;DHT22;204;48.942;9.256;2024-03-22T03:09:51;6.10;1.00
435;DHT22;204;48.942;9.256;2024-03-22T03:12:17;6.10;1.00
435;DHT22;204;48.942;9.256;2024-03-22T03:14:42;6.20;1.00
435;DHT22;204;48.942;9.256;2024-03-22T03:17:09;6.10;1.00
435;DHT22;204;48.942;9.256;2024-03-22T03:19:35;6.20;1.00
435;DHT22;204;48.942;9.256;2024-03-22T03:22:01;6.20;1.00
435;DHT22;204;48.942;9.256;2024-03-22T03:24:26;6.20;1.00
435;DHT22;204;48.942;9.256;2024-03-22T03:26:52;6.20;1.00
435;DHT22;204;48.942;9.256;2024-03-22T03:29:17;6.20;1.00
435;DHT22;204;48.942;9.256;2024-03-22T03:31:43;6.10;1.00
435;DHT22;204;48.942;9.256;2024-03-22T03:34:08;6.10;1.00
435;DHT22;204;48.942;9.256;2024-03-22T03:36:34;6.20;1.00
435;DHT22;204;48.942;9.256;2024-03-22T03:39:00;6.20;1.00
435;DHT22;204;48.942;9.256;2024-03-22T03:41:25;6.10;1.00
435;DHT22;204;48.942;9.256;2024-03-22T03:43:51;6.10;1.00
435;DHT22;204;48.942;9.256;2024-03-22T03:46:16;6.10;1.00
435;DHT22;204;48.942;9.256;2024-03-22T03:48:42;6.00;1.00
435;DHT22;204;48.942;9.256;2024-03-22T03:51:07;6.00;1.00
435;DHT22;204;48.942;9.256;2024-03-22T03:53:33;6.00;1.00
435;DHT22;204;48.942;9.256;2024-03-22T03:55:58;6.00;1.00
435;DHT22;204;48.942;9.256;2024-03-22T03:58:24;6.00;1.00
435;DHT22;204;48.942;9.256;2024-03-22T04:00:50;6.10;1.00
435;DHT22;204;48.942;9.256;2024-03-22T04:03:15;6.10;1.00
435;DHT22;204;48.942;9.256;2024-03-22T04:05:41;6.10;1.00
435;DHT22;204;48.942;9.256;2024-03-22T04:08:06;6.10;1.00
435;DHT22;204;48.942;9.256;2024-03-22T04:10:32;6.20;1.00
435;DHT22;204;48.942;9.256;2024-03-22T04:12:57;6.30;1.00
435;DHT22;204;48.942;9.256;2024-03-22T04:15:23;6.30;1.00
435;DHT22;204;48.942;9.256;2024-03-22T04:17:49;6.30;1.00
435;DHT22;204;48.942;9.256;2024-03-22T04:20:15;6.30;1.00
435;DHT22;204;48.942;9.256;2024-03-22T04:22:40;6.40;1.00
435;DHT22;204;48.942;9.256;2024-03-22T04:25:06;6.40;1.00
435;DHT22;204;48.942;9.256;2024-03-22T04:27:32;6.40;1.00
435;DHT22;204;48.942;9.256;2024-03-22T04:29:57;6.50;1.00
435;DHT22;204;48.942;9.256;2024-03-22T04:32:23;6.50;1.00
435;DHT22;204;48.942;9.256;2024-03-22T04:34:49;6.50;1.00
435;DHT22;204;48.942;9.256;2024-03-22T04:37:14;6.60;1.00
435;DHT22;204;48.942;9.256;2024-03-22T04:39:40;6.60;1.00
435;DHT22;204;48.942;9.256;2024-03-22T04:42:06;6.70;1.00
435;DHT22;204;48.942;9.256;2024-03-22T04:44:32;6.70;1.00
435;DHT22;204;48.942;9.256;2024-03-22T04:46:58;6.70;1.00
435;DHT22;204;48.942;9.256;2024-03-22T04:49:23;6.70;1.00
435;DHT22;204;48.942;9.256;2024-03-22T04:51:49;6.80;1.00
435;DHT22;204;48.942;9.256;2024-03-22T04:54:14;6.80;1.00
435;DHT22;204;48.942;9.256;2024-03-22T04:56:40;6.80;1.00
435;DHT22;204;48.942;9.256;2024-03-22T04:59:06;6.90;1.00
435;DHT22;204;48.942;9.256;2024-03-22T05:01:31;6.90;1.00
435;DHT22;204;48.942;9.256;2024-03-22T05:03:57;6.90;1.00
435;DHT22;204;48.942;9.256;2024-03-22T05:06:22;6.90;1.00
435;DHT22;204;48.942;9.256;2024-03-22T05:08:48;6.90;1.00
435;DHT22;204;48.942;9.256;2024-03-22T05:11:13;6.90;1.00
435;DHT22;204;48.942;9.256;2024-03-22T05:13:39;6.90;1.00
435;DHT22;204;48.942;9.256;2024-03-22T05:16:07;7.00;1.00
435;DHT22;204;48.942;9.256;2024-03-22T05:18:33;6.90;1.00
435;DHT22;204;48.942;9.256;2024-03-22T05:20:59;7.00;1.00
435;DHT22;204;48.942;9.256;2024-03-22T05:23:24;7.00;1.00
435;DHT22;204;48.942;9.256;2024-03-22T05:25:50;7.00;1.00
435;DHT22;204;48.942;9.256;2024-03-22T05:28:15;7.10;1.00
435;DHT22;204;48.942;9.256;2024-03-22T05:30:41;7.10;1.00
435;DHT22;204;48.942;9.256;2024-03-22T05:33:07;7.20;1.00
435;DHT22;204;48.942;9.256;2024-03-22T05:35:32;7.20;1.00
435;DHT22;204;48.942;9.256;2024-03-22T05:37:58;7.20;1.00
435;DHT22;204;48.942;9.256;2024-03-22T05:40:23;7.20;1.00
435;DHT22;204;48.942;9.256;2024-03-22T05:42:49;7.20;1.00
435;DHT22;204;48.942;9.256;2024-03-22T05:45:14;7.20;1.00
435;DHT22;204;48.942;9.256;2024-03-22T05:47:40;7.20;1.00
435;DHT22;204;48.942;9.256;2024-03-22T05:50:06;7.10;1.00
435;DHT22;204;48.942;9.256;2024-03-22T05:52:33;7.10;1.00
435;DHT22;204;48.942;9.256;2024-03-22T05:54:59;7.10;1.00
435;DHT22;204;48.942;9.256;2024-03-22T05:57:24;7.10;1.00
435;DHT22;204;48.942;9.256;2024-03-22T05:59:50;7.10;1.00
435;DHT22;204;48.942;9.256;2024-03-22T06:02:16;7.20;1.00
435;DHT22;204;48.942;9.256;2024-03-22T06:04:42;7.20;1.00
435;DHT22;204;48.942;9.256;2024-03-22T06:07:07;7.30;1.00
435;DHT22;204;48.942;9.256;2024-03-22T06:09:33;7.40;1.00
435;DHT22;204;48.942;9.256;2024-03-22T06:12:04;7.40;1.00
435;DHT22;204;48.942;9.256;2024-03-22T06:14:29;7.40;1.00
435;DHT22;204;48.942;9.256;2024-03-22T06:16:55;7.50;1.00
435;DHT22;204;48.942;9.256;2024-03-22T06:19:20;7.50;1.00
435;DHT22;204;48.942;9.256;2024-03-22T06:21:46;7.60;1.00
435;DHT22;204;48.942;9.256;2024-03-22T06:24:12;7.70;1.00
435;DHT22;204;48.942;9.256;2024-03-22T06:26:37;7.80;1.00
435;DHT22;204;48.942;9.256;2024-03-22T06:29:03;7.90;1.00
435;DHT22;204;48.942;9.256;2024-03-22T06:31:31;8.10;1.00
435;DHT22;204;48.942;9.256;2024-03-22T06:33:57;8.20;1.00
435;DHT22;204;48.942;9.256;2024-03-22T06:36:31;8.30;1.00
435;DHT22;204;48.942;9.256;2024-03-22T06:38:57;8.50;1.00
435;DHT22;204;48.942;9.256;2024-03-22T06:41:23;8.60;1.00
435;DHT22;204;48.942;9.256;2024-03-22T06:43:49;8.80;1.00
435;DHT22;204;48.942;9.256;2024-03-22T06:46:14;9.00;1.00
435;DHT22;204;48.942;9.256;2024-03-22T06:48:40;9.20;1.00
435;DHT22;204;48.942;9.256;2024-03-22T06:51:06;9.50;1.00
435;DHT22;204;48.942;9.256;2024-03-22T06:53:31;9.70;1.00
435;DHT22;204;48.942;9.256;2024-03-22T06:55:57;9.90;1.00
435;DHT22;204;48.942;9.256;2024-03-22T06:58:22;10.10;1.00
435;DHT22;204;48.942;9.256;2024-03-22T07:00:49;10.20;1.00
435;DHT22;204;48.942;9.256;2024-03-22T07:03:14;10.40;1.00
435;DHT22;204;48.942;9.256;2024-03-22T07:05:40;10.60;1.00
435;DHT22;204;48.942;9.256;2024-03-22T07:08:06;10.70;1.00
435;DHT22;204;48.942;9.256;2024-03-22T07:10:31;10.90;1.00
435;DHT22;204;48.942;9.256;2024-03-22T07:12:58;11.00;1.00
435;DHT22;204;48.942;9.256;2024-03-22T07:15:23;11.10;99.90
435;DHT22;204;48.942;9.256;2024-03-22T07:17:49;11.20;99.90
435;DHT22;204;48.942;9.256;2024-03-22T07:20:15;11.40;99.90
435;DHT22;204;48.942;9.256;2024-03-22T07:22:41;11.50;99.90
435;DHT22;204;48.942;9.256;2024-03-22T07:25:07;11.60;99.90
435;DHT22;204;48.942;9.256;2024-03-22T07:27:35;11.70;99.90
435;DHT22;204;48.942;9.256;2024-03-22T07:30:01;11.80;99.90
435;DHT22;204;48.942;9.256;2024-03-22T07:32:26;11.90;99.90
435;DHT22;204;48.942;9.256;2024-03-22T07:34:52;11.90;99.90
435;DHT22;204;48.942;9.256;2024-03-22T07:37:17;12.00;99.90
435;DHT22;204;48.942;9.256;2024-03-22T07:39:43;12.10;99.90
435;DHT22;204;48.942;9.256;2024-03-22T07:42:08;12.30;99.90
435;DHT22;204;48.942;9.256;2024-03-22T07:44:34;12.40;99.90
435;DHT22;204;48.942;9.256;2024-03-22T07:46:59;12.50;99.90
435;DHT22;204;48.942;9.256;2024-03-22T07:49:25;12.60;99.90
435;DHT22;204;48.942;9.256;2024-03-22T07:51:50;12.70;99.90
435;DHT22;204;48.942;9.256;2024-03-22T07:54:16;12.80;99.90
435;DHT22;204;48.942;9.256;2024-03-22T07:56:41;12.90;99.90
435;DHT22;204;48.942;9.256;2024-03-22T07:59:07;13.10;99.90
435;DHT22;204;48.942;9.256;2024-03-22T08:01:32;13.30;99.90
435;DHT22;204;48.942;9.256;2024-03-22T08:03:58;13.50;99.90
435;DHT22;204;48.942;9.256;2024-03-22T08:06:24;13.70;99.90
435;DHT22;204;48.942;9.256;2024-03-22T08:08:49;13.90;99.90
435;DHT22;204;48.942;9.256;2024-03-22T08:11:15;14.10;99.90
435;DHT22;204;48.942;9.256;2024-03-22T08:13:40;14.40;99.90
435;DHT22;204;48.942;9.256;2024-03-22T08:16:06;14.70;99.90
435;DHT22;204;48.942;9.256;2024-03-22T08:18:32;14.80;99.90
435;DHT22;204;48.942;9.256;2024-03-22T08:21:00;15.00;99.90
435;DHT22;204;48.942;9.256;2024-03-22T08:23:26;15.20;99.90
435;DHT22;204;48.942;9.256;2024-03-22T08:25:51;15.40;99.90
435;DHT22;204;48.942;9.256;2024-03-22T08:28:17;15.50;99.90
435;DHT22;204;48.942;9.256;2024-03-22T08:30:43;15.50;99.90
435;DHT22;204;48.942;9.256;2024-03-22T08:33:09;15.70;99.90
435;DHT22;204;48.942;9.256;2024-03-22T08:35:35;15.90;99.90
435;DHT22;204;48.942;9.256;2024-03-22T08:38:01;16.20;99.90
435;DHT22;204;48.942;9.256;2024-03-22T08:40:26;16.40;99.90
435;DHT22;204;48.942;9.256;2024-03-22T08:42:52;16.70;99.90
435;DHT22;204;48.942;9.256;2024-03-22T08:45:18;16.90;99.90
435;DHT22;204;48.942;9.256;2024-03-22T08:47:43;17.10;99.90
435;DHT22;204;48.942;9.256;2024-03-22T08:50:11;17.30;99.90
435;DHT22;204;48.942;9.256;2024-03-22T08:52:37;17.50;99.90
435;DHT22;204;48.942;9.256;2024-03-22T08:55:04;17.60;99.90
435;DHT22;204;48.942;9.256;2024-03-22T08:57:31;17.70;99.90
435;DHT22;204;48.942;9.256;2024-03-22T08:59:57;17.80;99.90
435;DHT22;204;48.942;9.256;2024-03-22T09:02:22;17.90;99.90
435;DHT22;204;48.942;9.256;2024-03-22T09:04:48;17.90;99.90
435;DHT22;204;48.942;9.256;2024-03-22T09:07:13;18.00;99.90
435;DHT22;204;48.942;9.256;2024-03-22T09:09:39;18.10;99.90
435;DHT22;204;48.942;9.256;2024-03-22T09:12:05;18.20;99.90
435;DHT22;204;48.942;9.256;2024-03-22T09:14:30;18.30;99.90
435;DHT22;204;48.942;9.256;2024-03-22T09:16:56;18.40;99.90
435;DHT22;204;48.942;9.256;2024-03-22T09:19:22;18.60;99.90
435;DHT22;204;48.942;9.256;2024-03-22T09:21:47;18.70;99.90
435;DHT22;204;48.942;9.256;2024-03-22T09:24:13;18.80;99.90
435;DHT22;204;48.942;9.256;2024-03-22T09:26:38;18.90;99.90
435;DHT22;204;48.942;9.256;2024-03-22T09:29:04;19.10;99.90
435;DHT22;204;48.942;9.256;2024-03-22T09:31:30;19.40;99.90
435;DHT22;204;48.942;9.256;2024-03-22T09:33:59;19.60;99.90
435;DHT22;204;48.942;9.256;2024-03-22T09:36:24;19.80;99.90
435;DHT22;204;48.942;9.256;2024-03-22T09:38:50;19.90;99.90
435;DHT22;204;48.942;9.256;2024-03-22T09:41:24;20.10;99.90
435;DHT22;204;48.942;9.256;2024-03-22T09:43:51;20.20;99.90
435;DHT22;204;48.942;9.256;2024-03-22T09:46:19;20.40;99.90
435;DHT22;204;48.942;9.256;2024-03-22T09:48:49;20.60;99.90
435;DHT22;204;48.942;9.256;2024-03-22T09:51:17;20.80;99.90
435;DHT22;204;48.942;9.256;2024-03-22T09:53:48;20.80;99.90
435;DHT22;204;48.942;9.256;2024-03-22T09:56:15;21.00;99.90
435;DHT22;204;48.942;9.256;2024-03-22T09:58:44;21.10;99.90
435;DHT22;204;48.942;9.256;2024-03-22T10:01:11;21.30;99.90
435;DHT22;204;48.942;9.256;2024-03-22T10:03:37;21.40;99.90
435;DHT22;204;48.942;9.256;2024-03-22T10:06:03;21.50;99.90
435;DHT22;204;48.942;9.256;2024-03-22T10:08:30;21.50;99.90
435;DHT22;204;48.942;9.256;2024-03-22T10:10:55;21.60;99.90
435;DHT22;204;48.942;9.256;2024-03-22T10:13:21;21.70;99.90
435;DHT22;204;48.942;9.256;2024-03-22T10:15:47;21.80;99.90
435;DHT22;204;48.942;9.256;2024-03-22T10:18:12;21.80;99.90
435;DHT22;204;48.942;9.256;2024-03-22T10:20:40;21.90;99.90
435;DHT22;204;48.942;9.256;2024-03-22T10:23:07;21.90;99.90
435;DHT22;204;48.942;9.256;2024-03-22T10:25:34;21.80;99.90
435;DHT22;204;48.942;9.256;2024-03-22T10:27:59;21.80;99.90
435;DHT22;204;48.942;9.256;2024-03-22T10:30:25;21.90;99.90
435;DHT22;204;48.942;9.256;2024-03-22T10:32:51;22.00;99.90
435;DHT22;204;48.942;9.256;2024-03-22T10:35:17;22.10;99.90
435;DHT22;204;48.942;9.256;2024-03-22T10:37:44;22.30;99.90
435;DHT22;204;48.942;9.256;2024-03-22T10:40:10;22.60;99.90
435;DHT22;204;48.942;9.256;2024-03-22T10:45:03;23.00;99.90
435;DHT22;204;48.942;9.256;2024-03-22T10:47:31;23.00;99.90
435;DHT22;204;48.942;9.256;2024-03-22T10:50:07;22.90;99.90
435;DHT22;204;48.942;9.256;2024-03-22T10:52:58;23.00;99.90
435;DHT22;204;48.942;9.256;2024-03-22T10:55:32;23.00;99.90
435;DHT22;204;48.942;9.256;2024-03-22T10:57:58;23.10;99.90
435;DHT22;204;48.942;9.256;2024-03-22T11:00:32;23.10;99.90
435;DHT22;204;48.942;9.256;2024-03-22T11:02:59;23.10;99.90
435;DHT22;204;48.942;9.256;2024-03-22T11:05:27;23.10;99.90
435;DHT22;204;48.942;9.256;2024-03-22T11:08:03;23.20;99.90
435;DHT22;204;48.942;9.256;2024-03-22T11:10:35;23.40;99.90
435;DHT22;204;48.942;9.256;2024-03-22T11:13:07;23.30;99.90
435;DHT22;204;48.942;9.256;2024-03-22T11:15:33;23.40;99.90
435;DHT22;204;48.942;9.256;2024-03-22T11:17:59;23.50;99.90
435;DHT22;204;48.942;9.256;2024-03-22T11:20:26;23.60;99.90
435;DHT22;204;48.942;9.256;2024-03-22T11:22:52;23.60;99.90
435;DHT22;204;48.942;9.256;2024-03-22T11:25:18;23.60;99.90
435;DHT22;204;48.942;9.256;2024-03-22T11:27:45;23.70;99.90
435;DHT22;204;48.942;9.256;2024-03-22T11:30:10;23.60;99.90
435;DHT22;204;48.942;9.256;2024-03-22T11:32:36;23.40;99.90
435;DHT22;204;48.942;9.256;2024-03-22T11:35:11;23.30;99.90
435;DHT22;204;48.942;9.256;2024-03-22T11:37:40;23.20;99.90
435;DHT22;204;48.942;9.256;2024-03-22T11:40:09;23.20;99.90
435;DHT22;204;48.942;9.256;2024-03-22T11:42:36;23.10;99.90
435;DHT22;204;48.942;9.256;2024-03-22T11:45:02;23.20;99.90
435;DHT22;204;48.942;9.256;2024-03-22T11:47:28;23.30;99.90
435;DHT22;204;48.942;9.256;2024-03-22T11:49:55;23.50;99.90
435;DHT22;204;48.942;9.256;2024-03-22T11:52:28;23.60;99.90
435;DHT22;204;48.942;9.256;2024-03-22T11:54:54;23.80;99.90
435;DHT22;204;48.942;9.256;2024-03-22T11:57:23;23.70;99.90
435;DHT22;204;48.942;9.256;2024-03-22T11:59:50;23.60;99.90
435;DHT22;204;48.942;9.256;2024-03-22T12:02:16;23.60;99.90
435;DHT22;204;48.942;9.256;2024-03-22T12:04:47;23.60;99.90
435;DHT22;204;48.942;9.256;2024-03-22T12:07:13;23.60;99.90
435;DHT22;204;48.942;9.256;2024-03-22T12:09:45;23.80;99.90
435;DHT22;204;48.942;9.256;2024-03-22T12:12:12;23.90;99.90
435;DHT22;204;48.942;9.256;2024-03-22T12:14:39;24.00;99.90
435;DHT22;204;48.942;9.256;2024-03-22T12:17:05;24.10;99.90
435;DHT22;204;48.942;9.256;2024-03-22T12:19:31;24.20;99.90
435;DHT22;204;48.942;9.256;2024-03-22T12:21:56;24.20;99.90
435;DHT22;204;48.942;9.256;2024-03-22T12:24:23;24.30;99.90
435;DHT22;204;48.942;9.256;2024-03-22T12:26:49;24.30;99.90
435;DHT22;204;48.942;9.256;2024-03-22T12:29:16;24.30;99.90
435;DHT22;204;48.942;9.256;2024-03-22T12:31:42;24.40;99.90
435;DHT22;204;48.942;9.256;2024-03-22T12:34:08;24.50;99.90
435;DHT22;204;48.942;9.256;2024-03-22T12:36:33;24.70;99.90
435;DHT22;204;48.942;9.256;2024-03-22T12:38:59;24.70;99.90
435;DHT22;204;48.942;9.256;2024-03-22T12:41:25;24.70;99.90
435;DHT22;204;48.942;9.256;2024-03-22T12:43:51;24.70;99.90
435;DHT22;204;48.942;9.256;2024-03-22T12:46:16;24.60;99.90
435;DHT22;204;48.942;9.256;2024-03-22T12:48:42;24.60;99.90
435;DHT22;204;48.942;9.256;2024-03-22T12:51:07;24.70;99.90
435;DHT22;204;48.942;9.256;2024-03-22T12:53:33;24.80;99.90
435;DHT22;204;48.942;9.256;2024-03-22T12:55:59;24.80;99.90
435;DHT22;204;48.942;9.256;2024-03-22T12:58:24;24.80;99.90
435;DHT22;204;48.942;9.256;2024-03-22T13:00:50;24.60;99.90
435;DHT22;204;48.942;9.256;2024-03-22T13:03:15;24.70;99.90
435;DHT22;204;48.942;9.256;2024-03-22T13:05:42;24.70;99.90
435;DHT22;204;48.942;9.256;2024-03-22T13:08:07;24.80;99.90
435;DHT22;204;48.942;9.256;2024-03-22T13:10:33;24.70;99.90
435;DHT22;204;48.942;9.256;2024-03-22T13:12:59;24.60;99.90
435;DHT22;204;48.942;9.256;2024-03-22T13:15:24;24.60;99.90
435;DHT22;204;48.942;9.256;2024-03-22T13:17:51;24.60;99.90
435;DHT22;204;48.942;9.256;2024-03-22T13:20:18;24.50;99.90
435;DHT22;204;48.942;9.256;2024-03-22T13:22:44;24.40;99.90
435;DHT22;204;48.942;9.256;2024-03-22T13:25:10;24.30;99.90
435;DHT22;204;48.942;9.256;2024-03-22T13:27:37;24.30;99.90
435;DHT22;204;48.942;9.256;2024-03-22T13:30:06;24.40;99.90
435;DHT22;204;48.942;9.256;2024-03-22T13:32:38;24.50;99.90
435;DHT22;204;48.942;9.256;2024-03-22T13:35:05;24.50;99.90
435;DHT22;204;48.942;9.256;2024-03-22T13:37:31;24.40;99.90
435;DHT22;204;48.942;9.256;2024-03-22T13:39:56;24.40;99.90
435;DHT22;204;48.942;9.256;2024-03-22T13:42:22;24.20;99.90
435;DHT22;204;48.942;9.256;2024-03-22T13:44:48;23.90;99.90
435;DHT22;204;48.942;9.256;2024-03-22T13:47:14;23.90;99.90
435;DHT22;204;48.942;9.256;2024-03-22T13:49:39;23.80;99.90
435;DHT22;204;48.942;9.256;2024-03-22T13:52:07;23.80;99.90
435;DHT22;204;48.942;9.256;2024-03-22T13:54:33;23.70;99.90
435;DHT22;204;48.942;9.256;2024-03-22T13:56:58;23.40;99.90
435;DHT22;204;48.942;9.256;2024-03-22T13:59:24;23.20;99.90
435;DHT22;204;48.942;9.256;2024-03-22T14:01:49;23.20;99.90
435;DHT22;204;48.942;9.256;2024-03-22T14:04:27;23.20;99.90
435;DHT22;204;48.942;9.256;2024-03-22T14:06:57;23.20;99.90
435;DHT22;204;48.942;9.256;2024-03-22T14:09:28;23.10;99.90
435;DHT22;204;48.942;9.256;2024-03-22T14:11:54;23.10;99.90
435;DHT22;204;48.942;9.256;2024-03-22T14:14:22;23.00;99.90
435;DHT22;204;48.942;9.256;2024-03-22T14:16:54;22.90;99.90
435;DHT22;204;48.942;9.256;2024-03-22T14:19:19;22.70;99.90
435;DHT22;204;48.942;9.256;2024-03-22T14:21:49;22.60;99.90
435;DHT22;204;48.942;9.256;2024-03-22T14:24:14;22.40;99.90
435;DHT22;204;48.942;9.256;2024-03-22T14:26:40;22.30;99.90
435;DHT22;204;48.942;9.256;2024-03-22T14:29:12;22.20;99.90
435;DHT22;204;48.942;9.256;2024-03-22T14:31:38;21.90;99.90
435;DHT22;204;48.942;9.256;2024-03-22T14:34:05;21.90;99.90
435;DHT22;204;48.942;9.256;2024-03-22T14:36:33;21.70;99.90
435;DHT22;204;48.942;9.256;2024-03-22T14:38:59;21.60;99.90
435;DHT22;204;48.942;9.256;2024-03-22T14:41:25;21.50;99.90
435;DHT22;204;48.942;9.256;2024-03-22T14:43:53;21.50;99.90
435;DHT22;204;48.942;9.256;2024-03-22T14:46:20;21.50;99.90
435;DHT22;204;48.942;9.256;2024-03-22T14:48:50;21.50;99.90
435;DHT22;204;48.942;9.256;2024-03-22T14:51:15;21.50;99.90
435;DHT22;204;48.942;9.256;2024-03-22T14:53:43;21.50;99.90
435;DHT22;204;48.942;9.256;2024-03-22T14:56:09;21.30;99.90
435;DHT22;204;48.942;9.256;2024-03-22T14:58:34;21.30;99.90
435;DHT22;204;48.942;9.256;2024-03-22T15:01:03;21.10;99.90
435;DHT22;204;48.942;9.256;2024-03-22T15:03:30;20.80;99.90
435;DHT22;204;48.942;9.256;2024-03-22T15:05:57;20.70;99.90
435;DHT22;204;48.942;9.256;2024-03-22T15:08:25;20.60;99.90
435;DHT22;204;48.942;9.256;2024-03-22T15:10:51;20.50;99.90
435;DHT22;204;48.942;9.256;2024-03-22T15:13:19;20.40;99.90
435;DHT22;204;48.942;9.256;2024-03-22T15:15:55;20.30;99.90
435;DHT22;204;48.942;9.256;2024-03-22T15:18:21;20.10;99.90
435;DHT22;204;48.942;9.256;2024-03-22T15:20:47;20.00;99.90
435;DHT22;204;48.942;9.256;2024-03-22T15:23:14;19.90;99.90
435;DHT22;204;48.942;9.256;2024-03-22T15:25:40;19.80;99.90
435;DHT22;204;48.942;9.256;2024-03-22T15:28:06;19.80;99.90
435;DHT22;204;48.942;9.256;2024-03-22T15:30:32;19.80;99.90
435;DHT22;204;48.942;9.256;2024-03-22T15:32:59;19.70;99.90
435;DHT22;204;48.942;9.256;2024-03-22T15:35:25;19.60;99.90
435;DHT22;204;48.942;9.256;2024-03-22T15:37:51;19.60;99.90
435;DHT22;204;48.942;9.256;2024-03-22T15:40:16;19.60;99.90
435;DHT22;204;48.942;9.256;2024-03-22T15:42:42;19.60;99.90
435;DHT22;204;48.942;9.256;2024-03-22T15:45:08;19.60;99.90
435;DHT22;204;48.942;9.256;2024-03-22T15:47:34;19.50;99.90
435;DHT22;204;48.942;9.256;2024-03-22T15:50:00;19.50;99.90
435;DHT22;204;48.942;9.256;2024-03-22T15:52:26;19.50;99.90
435;DHT22;204;48.942;9.256;2024-03-22T15:54:52;19.50;99.90
435;DHT22;204;48.942;9.256;2024-03-22T15:57:21;19.50;99.90
435;DHT22;204;48.942;9.256;2024-03-22T15:59:47;19.50;99.90
435;DHT22;204;48.942;9.256;2024-03-22T16:02:12;19.50;99.90
435;DHT22;204;48.942;9.256;2024-03-22T16:04:38;19.50;99.90
435;DHT22;204;48.942;9.256;2024-03-22T16:07:04;19.60;99.90
435;DHT22;204;48.942;9.256;2024-03-22T16:09:30;19.60;99.90
435;DHT22;204;48.942;9.256;2024-03-22T16:11:56;19.60;99.90
435;DHT22;204;48.942;9.256;2024-03-22T16:14:21;19.60;99.90
435;DHT22;204;48.942;9.256;2024-03-22T16:16:47;19.60;99.90
435;DHT22;204;48.942;9.256;2024-03-22T16:19:13;19.60;99.90
435;DHT22;204;48.942;9.256;2024-03-22T16:21:39;19.60;99.90
435;DHT22;204;48.942;9.256;2024-03-22T16:24:04;19.60;99.90
435;DHT22;204;48.942;9.256;2024-03-22T16:26:31;19.70;99.90
435;DHT22;204;48.942;9.256;2024-03-22T16:28:56;19.70;99.90
435;DHT22;204;48.942;9.256;2024-03-22T16:31:23;19.70;99.90
435;DHT22;204;48.942;9.256;2024-03-22T16:33:48;19.70;99.90
435;DHT22;204;48.942;9.256;2024-03-22T16:36:14;19.80;99.90
435;DHT22;204;48.942;9.256;2024-03-22T16:38:39;19.80;99.90
435;DHT22;204;48.942;9.256;2024-03-22T16:41:06;19.80;99.90
435;DHT22;204;48.942;9.256;2024-03-22T16:43:33;19.80;99.90